Time;durP1;ratioP1;P1;durP2;ratioP2;P2;SDS_P1;SDS_P2;PMS_P1;PMS_P2;Temp;Humidity;BMP_temperature;BMP_pressure;BME280_temperature;BME280_humidity;BME280_pressure;Samples;Min_cycle;Max_cycle;Signal;HPM_P1;HPM_P2
2022/11/18 00:01:08;;;;;;;;;;;;;;;7.75;48.29;93655.09;5067648;28;19964;-76
2022/11/18 00:03:33;;;;;;;;;;;;;;;7.69;47.89;93658.59;5068497;28;20404;-76
2022/11/18 00:05:58;;;;;;;;;;;;;;;7.55;47.43;93657.78;5086755;28;20079;-76
2022/11/18 00:08:24;;;;;;;;;;;;;;;7.42;47.82;93656.00;5052991;28;19976;-76
2022/11/18 00:10:49;;;;;;;;;;;;;;;7.30;48.58;93653.16;5069742;28;20095;-76
2022/11/18 00:16:04;;;;;;;;;;;;;;;7.08;48.42;93652.56;5047256;28;20042;-76
2022/11/18 00:18:29;;;;;;;;;;;;;;;6.93;47.85;93658.88;5085600;28;20177;-76
2022/11/18 00:20:55;;;;;;;;;;;;;;;6.76;48.58;93661.94;5066547;28;19975;-77
2022/11/18 00:23:20;;;;;;;;;;;;;;;6.64;48.42;93661.69;5067541;28;20208;-76
2022/11/18 00:25:45;;;;;;;;;;;;;;;6.56;48.61;93666.38;5066405;28;20537;-76
2022/11/18 00:28:10;;;;;;;;;;;;;;;6.47;49.26;93666.50;5068985;28;19999;-77
2022/11/18 00:30:36;;;;;;;;;;;;;;;6.49;51.32;93669.00;5088255;28;19991;-76
2022/11/18 00:33:01;;;;;;;;;;;;;;;6.36;49.11;93667.13;5087401;28;20007;-76
2022/11/18 00:35:26;;;;;;;;;;;;;;;6.32;50.25;93671.97;5085023;28;20352;-76
2022/11/18 00:37:51;;;;;;;;;;;;;;;6.31;49.33;93680.09;5061784;28;19992;-76
2022/11/18 00:40:17;;;;;;;;;;;;;;;6.32;50.64;93679.91;5064490;28;20056;-76
2022/11/18 00:42:51;;;;;;;;;;;;;;;6.34;50.77;93679.72;5084887;28;20029;-76
2022/11/18 00:45:19;;;;;;;;;;;;;;;6.31;50.02;93675.63;5073975;28;20451;-76
2022/11/18 00:47:44;;;;;;;;;;;;;;;6.23;50.04;93678.47;5077196;28;20322;-76
2022/11/18 00:50:10;;;;;;;;;;;;;;;6.19;49.99;93680.66;5065180;28;20034;-75
2022/11/18 00:52:35;;;;;;;;;;;;;;;6.24;50.77;93680.91;5067804;28;20004;-75
2022/11/18 00:55:00;;;;;;;;;;;;;;;6.33;50.92;93686.81;5085495;28;20356;-76
2022/11/18 00:57:25;;;;;;;;;;;;;;;6.21;48.93;93680.47;5069024;28;20075;-76
2022/11/18 00:59:51;;;;;;;;;;;;;;;6.05;49.92;93690.38;5067606;28;19976;-76
2022/11/18 01:02:16;;;;;;;;;;;;;;;6.17;50.61;93695.09;5089384;28;20000;-76
2022/11/18 01:04:41;;;;;;;;;;;;;;;6.17;49.72;93693.28;5069446;28;19964;-75
2022/11/18 01:07:06;;;;;;;;;;;;;;;6.31;50.27;93701.25;5056687;28;20078;-75
2022/11/18 01:09:32;;;;;;;;;;;;;;;6.43;51.30;93697.00;5089528;28;20087;-76
2022/11/18 01:14:41;;;;;;;;;;;;;;;6.67;49.80;93694.88;5088752;28;20538;-76
2022/11/18 01:17:06;;;;;;;;;;;;;;;6.77;50.10;93694.50;5068834;28;20086;-76
2022/11/18 01:19:31;;;;;;;;;;;;;;;6.83;50.21;93703.44;5054833;28;19973;-75
2022/11/18 01:22:01;;;;;;;;;;;;;;;6.86;49.60;93700.38;5089538;28;20384;-76
2022/11/18 01:24:27;;;;;;;;;;;;;;;6.86;49.24;93709.13;5090462;28;20068;-76
2022/11/18 01:26:52;;;;;;;;;;;;;;;6.99;49.92;93708.34;5090652;28;20117;-75
2022/11/18 01:29:17;;;;;;;;;;;;;;;6.95;49.11;93708.94;5093583;28;19971;-75
2022/11/18 01:31:42;;;;;;;;;;;;;;;6.91;48.83;93713.84;5089287;28;19972;-76
2022/11/18 01:34:08;;;;;;;;;;;;;;;6.91;49.01;93708.53;5073560;28;20108;-75
2022/11/18 01:36:33;;;;;;;;;;;;;;;6.93;48.99;93703.84;5089191;28;20036;-76
2022/11/18 01:38:59;;;;;;;;;;;;;;;6.91;49.47;93711.19;5070580;28;19988;-75
2022/11/18 01:41:24;;;;;;;;;;;;;;;7.05;49.95;93708.53;5070637;28;20050;-76
2022/11/18 01:43:54;;;;;;;;;;;;;;;7.18;50.05;93700.63;5087206;28;20008;-76
2022/11/18 01:46:19;;;;;;;;;;;;;;;7.24;49.42;93710.38;5072131;28;19988;-76
2022/11/18 01:48:45;;;;;;;;;;;;;;;7.28;48.29;93710.81;5070078;28;20316;-76
2022/11/18 01:51:12;;;;;;;;;;;;;;;7.31;49.28;93710.38;5072643;28;20039;-76
2022/11/18 01:53:42;;;;;;;;;;;;;;;7.31;48.34;93702.44;5069331;28;19999;-76
2022/11/18 01:56:07;;;;;;;;;;;;;;;7.32;48.33;93711.19;5069136;28;20037;-76
2022/11/18 01:58:34;;;;;;;;;;;;;;;7.24;48.60;93709.59;5068984;28;20505;-75
2022/11/18 02:00:59;;;;;;;;;;;;;;;7.22;48.88;93712.44;5092249;28;19975;-76
2022/11/18 02:03:25;;;;;;;;;;;;;;;7.22;48.06;93720.38;5069956;28;20063;-77
2022/11/18 02:05:50;;;;;;;;;;;;;;;7.31;48.94;93717.53;5071121;28;19996;-78
2022/11/18 02:08:16;;;;;;;;;;;;;;;7.32;48.66;93717.31;5069798;28;20383;-78
2022/11/18 02:10:41;;;;;;;;;;;;;;;7.25;48.26;93717.28;5072589;28;20004;-78
2022/11/18 02:13:06;;;;;;;;;;;;;;;7.25;47.93;93713.84;5088287;28;19992;-78
2022/11/18 02:15:34;;;;;;;;;;;;;;;7.26;48.18;93723.41;5069005;28;20456;-76
2022/11/18 02:18:22;;;;;;;;;;;;;;;7.31;48.05;93720.97;5088106;28;20387;-75
2022/11/18 02:20:47;;;;;;;;;;;;;;;7.45;48.36;93719.13;5070332;28;19991;-77
2022/11/18 02:23:15;;;;;;;;;;;;;;;7.49;47.94;93719.53;5071039;28;20451;-78
2022/11/18 02:25:41;;;;;;;;;;;;;;;7.49;47.55;93719.53;5086291;28;20106;-78
2022/11/18 02:28:21;;;;;;;;;;;;;;;7.57;48.90;93724.63;5075452;28;20079;-78
2022/11/18 02:31:15;;;;;;;;;;;;;;;7.53;47.96;93720.75;5068734;28;20483;-78
2022/11/18 02:34:00;;;;;;;;;;;;;;;7.50;47.77;93729.09;5062351;28;20381;-77
2022/11/18 02:36:25;;;;;;;;;;;;;;;7.56;48.20;93730.13;5046891;28;20491;-76
2022/11/18 02:38:52;;;;;;;;;;;;;;;7.66;48.16;93730.53;5086280;28;19993;-77
2022/11/18 02:41:19;;;;;;;;;;;;;;;7.90;47.85;93736.22;5072035;28;19971;-78
2022/11/18 02:43:45;;;;;;;;;;;;;;;7.90;48.13;93736.22;5069268;28;20323;-77
2022/11/18 02:46:12;;;;;;;;;;;;;;;7.99;47.41;93734.16;5069670;28;20455;-77
2022/11/18 02:48:40;;;;;;;;;;;;;;;7.99;47.95;93742.13;5086174;28;19972;-77
2022/11/18 02:51:06;;;;;;;;;;;;;;;7.85;47.79;93731.53;5073975;28;19999;-77
2022/11/18 02:53:31;;;;;;;;;;;;;;;7.33;48.63;93739.28;5068746;28;19996;-77
2022/11/18 02:55:56;;;;;;;;;;;;;;;7.49;48.24;93749.50;5072206;28;19995;-77
2022/11/18 02:58:21;;;;;;;;;;;;;;;7.52;47.76;93751.72;5084426;28;20505;-77
2022/11/18 03:00:57;;;;;;;;;;;;;;;7.59;48.24;93750.91;5068798;28;19968;-77
2022/11/18 03:03:29;;;;;;;;;;;;;;;7.58;48.31;93749.28;5087662;28;20056;-77
2022/11/18 03:05:54;;;;;;;;;;;;;;;7.53;48.48;93747.25;5071907;28;19999;-77
2022/11/18 03:08:21;;;;;;;;;;;;;;;7.54;48.58;93754.97;5065337;28;19965;-76
2022/11/18 03:10:59;;;;;;;;;;;;;;;7.52;48.09;93742.97;5071172;28;20127;-77
2022/11/18 03:13:43;;;;;;;;;;;;;;;7.47;48.72;93751.50;5067524;28;20442;-77
2022/11/18 03:16:10;;;;;;;;;;;;;;;7.53;48.90;93748.06;5086679;28;20037;-77
2022/11/18 03:18:41;;;;;;;;;;;;;;;7.56;48.03;93752.13;5069158;28;19988;-77
2022/11/18 03:21:25;;;;;;;;;;;;;;;7.53;48.16;93750.72;5069758;28;19964;-77
2022/11/18 03:24:02;;;;;;;;;;;;;;;7.57;48.47;93755.56;5085081;28;21196;-77
2022/11/18 03:26:31;;;;;;;;;;;;;;;7.60;48.60;93760.47;5067135;28;20413;-77
2022/11/18 03:29:14;;;;;;;;;;;;;;;7.70;48.97;93752.09;5069494;28;20381;-77
2022/11/18 03:31:47;;;;;;;;;;;;;;;7.77;48.44;93761.72;5067836;28;19985;-76
2022/11/18 03:34:13;;;;;;;;;;;;;;;7.77;48.27;93756.41;5067514;28;20360;-77
2022/11/18 03:36:44;;;;;;;;;;;;;;;7.70;49.04;93768.00;5070317;28;20491;-77
2022/11/18 03:39:10;;;;;;;;;;;;;;;7.77;48.49;93766.19;5068427;28;19993;-77
2022/11/18 03:41:36;;;;;;;;;;;;;;;7.79;48.21;93764.97;5066584;28;20372;-77
2022/11/18 03:44:06;;;;;;;;;;;;;;;7.88;48.21;93776.16;5067948;28;20419;-77
2022/11/18 03:46:35;;;;;;;;;;;;;;;7.84;47.21;93779.41;5068136;28;20179;-78
2022/11/18 03:49:01;;;;;;;;;;;;;;;7.85;47.86;93779.22;5040995;28;19968;-77
2022/11/18 03:51:34;;;;;;;;;;;;;;;7.86;47.57;93790.63;5066349;28;20031;-78
2022/11/18 03:54:02;;;;;;;;;;;;;;;7.86;47.68;93798.59;5067689;28;20369;-77
2022/11/18 03:56:31;;;;;;;;;;;;;;;7.89;47.43;93784.94;5066907;28;20360;-77
2022/11/18 03:59:08;;;;;;;;;;;;;;;7.91;48.04;93786.34;5067730;28;20436;-76
2022/11/18 04:01:59;;;;;;;;;;;;;;;7.94;48.19;93790.41;5066499;28;20054;-77
2022/11/18 04:04:24;;;;;;;;;;;;;;;7.94;47.75;93786.94;5049107;28;19972;-77
2022/11/18 04:06:53;;;;;;;;;;;;;;;7.95;47.90;93788.59;5049471;28;20111;-77
2022/11/18 04:09:19;;;;;;;;;;;;;;;7.96;47.71;93795.53;5069337;28;20348;-77
2022/11/18 04:12:04;;;;;;;;;;;;;;;8.00;47.80;93808.16;5069830;28;19964;-77
2022/11/18 04:14:36;;;;;;;;;;;;;;;8.01;47.82;93801.84;5084728;28;20046;-78
2022/11/18 04:17:06;;;;;;;;;;;;;;;8.02;47.61;93800.81;5067255;28;20465;-77
2022/11/18 04:19:31;;;;;;;;;;;;;;;8.01;47.69;93811.59;5084257;28;19996;-76
2022/11/18 04:21:57;;;;;;;;;;;;;;;7.98;47.14;93804.06;5087724;28;20479;-77
2022/11/18 04:24:22;;;;;;;;;;;;;;;7.96;47.08;93800.81;5085992;28;20082;-77
2022/11/18 04:26:47;;;;;;;;;;;;;;;7.93;47.41;93815.31;5065162;28;19992;-78
2022/11/18 04:29:12;;;;;;;;;;;;;;;8.01;48.08;93817.72;5087006;28;19969;-78
2022/11/18 04:31:38;;;;;;;;;;;;;;;8.03;47.43;93810.38;5082532;28;19999;-76
2022/11/18 04:34:03;;;;;;;;;;;;;;;8.10;47.75;93814.84;5065700;28;20271;-77
2022/11/18 04:36:28;;;;;;;;;;;;;;;8.14;47.95;93818.72;5069717;28;20494;-78
2022/11/18 04:38:53;;;;;;;;;;;;;;;8.18;47.57;93818.13;5070031;28;20038;-78
2022/11/18 04:41:18;;;;;;;;;;;;;;;8.22;47.57;93826.44;5089096;28;20169;-77
2022/11/18 04:43:44;;;;;;;;;;;;;;;8.22;47.44;93829.09;5087618;28;20363;-77
2022/11/18 04:46:09;;;;;;;;;;;;;;;8.23;47.60;93828.06;5090815;28;20042;-78
2022/11/18 04:48:34;;;;;;;;;;;;;;;8.27;47.68;93831.16;5054064;28;20340;-78
2022/11/18 04:51:03;;;;;;;;;;;;;;;8.32;47.71;93833.19;5089178;28;20049;-76
2022/11/18 04:53:28;;;;;;;;;;;;;;;8.33;47.82;93829.50;5087547;28;20033;-78
2022/11/18 04:55:53;;;;;;;;;;;;;;;8.38;47.53;93832.34;5089317;28;20032;-76
2022/11/18 04:58:19;;;;;;;;;;;;;;;8.41;47.58;93834.56;5089751;28;19993;-77
2022/11/18 05:00:44;;;;;;;;;;;;;;;8.40;47.21;93828.44;5090371;28;20034;-78
2022/11/18 05:03:09;;;;;;;;;;;;;;;8.44;47.49;93834.16;5090671;28;19999;-77
2022/11/18 05:05:34;;;;;;;;;;;;;;;8.41;46.75;93839.88;5089359;28;19989;-77
2022/11/18 05:07:59;;;;;;;;;;;;;;;8.57;47.00;93839.41;5073485;28;20060;-76
2022/11/18 05:10:25;;;;;;;;;;;;;;;8.68;45.90;93850.41;5091894;28;20500;-77
2022/11/18 05:12:51;;;;;;;;;;;;;;;8.48;46.30;93851.28;5087930;28;20513;-77
2022/11/18 05:15:17;;;;;;;;;;;;;;;8.25;46.72;93854.38;5090654;28;19997;-78
2022/11/18 05:17:42;;;;;;;;;;;;;;;8.24;47.04;93860.72;5063826;28;19992;-78
2022/11/18 05:20:07;;;;;;;;;;;;;;;8.03;47.78;93854.63;5069599;28;20133;-77
2022/11/18 05:22:33;;;;;;;;;;;;;;;8.08;48.02;93862.78;5055256;28;19996;-77
2022/11/18 05:24:58;;;;;;;;;;;;;;;8.04;48.15;93857.09;5088921;28;19972;-77
2022/11/18 05:27:23;;;;;;;;;;;;;;;8.05;48.13;93864.00;5090050;28;19991;-76
2022/11/18 05:29:48;;;;;;;;;;;;;;;8.07;48.11;93860.31;5068439;28;19992;-77
2022/11/18 05:32:14;;;;;;;;;;;;;;;8.13;47.76;93859.50;5073702;28;19979;-76
2022/11/18 05:34:39;;;;;;;;;;;;;;;8.17;47.93;93866.03;5067727;28;20525;-77
2022/11/18 05:37:05;;;;;;;;;;;;;;;8.20;48.20;93868.28;5068027;28;20251;-77
2022/11/18 05:39:33;;;;;;;;;;;;;;;8.24;48.19;93872.16;5088172;28;20466;-77
2022/11/18 05:44:42;;;;;;;;;;;;;;;8.31;48.13;93877.44;5086999;28;19979;-77
2022/11/18 05:47:07;;;;;;;;;;;;;;;8.31;48.10;93880.09;5071492;28;19988;-76
2022/11/18 05:49:33;;;;;;;;;;;;;;;8.36;48.07;93888.22;5088196;28;19991;-77
2022/11/18 05:51:58;;;;;;;;;;;;;;;8.16;47.58;93875.00;5087157;28;19968;-77
2022/11/18 05:54:23;;;;;;;;;;;;;;;7.72;48.61;93885.16;5086694;28;19988;-77
2022/11/18 05:56:48;;;;;;;;;;;;;;;7.62;49.00;93889.00;5068058;28;20131;-77
2022/11/18 05:59:14;;;;;;;;;;;;;;;7.73;50.07;93886.78;5068314;28;20495;-77
2022/11/18 06:01:44;;;;;;;;;;;;;;;8.00;48.98;93894.78;5072214;28;20003;-77
2022/11/18 06:04:12;;;;;;;;;;;;;;;8.28;48.31;93896.41;5053382;28;19991;-77
2022/11/18 06:06:37;;;;;;;;;;;;;;;8.41;47.91;93890.25;5086760;28;19992;-77
2022/11/18 06:09:03;;;;;;;;;;;;;;;8.43;47.21;93894.34;5088298;28;20017;-77
2022/11/18 06:11:29;;;;;;;;;;;;;;;8.51;47.88;93898.63;5087518;28;19975;-77
2022/11/18 06:14:02;;;;;;;;;;;;;;;8.54;47.28;93902.69;5068950;28;20008;-77
2022/11/18 06:16:27;;;;;;;;;;;;;;;8.48;46.99;93904.34;5055037;28;19996;-77
2022/11/18 06:18:53;;;;;;;;;;;;;;;8.49;47.45;93913.09;5068925;28;20212;-77
2022/11/18 06:21:18;;;;;;;;;;;;;;;8.53;47.62;93915.13;5087177;28;20221;-77
2022/11/18 06:23:43;;;;;;;;;;;;;;;8.47;46.90;93913.28;5087034;28;19965;-78
2022/11/18 06:26:08;;;;;;;;;;;;;;;8.36;47.19;93924.56;5068481;28;20000;-77
2022/11/18 06:28:34;;;;;;;;;;;;;;;8.34;47.42;93924.75;5052214;28;20026;-76
2022/11/18 06:30:59;;;;;;;;;;;;;;;8.40;47.54;93923.91;5052429;28;20444;-77
2022/11/18 06:33:24;;;;;;;;;;;;;;;8.41;47.33;93925.56;5066895;28;20058;-78
2022/11/18 06:35:49;;;;;;;;;;;;;;;8.40;47.50;93933.72;5072019;28;20059;-76
2022/11/18 06:38:15;;;;;;;;;;;;;;;8.44;47.51;93932.28;5085053;28;19981;-77
2022/11/18 06:40:43;;;;;;;;;;;;;;;8.49;46.95;93936.94;5087198;28;19973;-76
2022/11/18 06:48:36;;;;;;;;;;;;;;;8.40;46.83;93947.78;5071473;28;20125;-77
2022/11/18 06:51:05;;;;;;;;;;;;;;;8.32;47.13;93942.69;5070529;28;20519;-76
2022/11/18 06:53:30;;;;;;;;;;;;;;;8.18;46.71;93948.00;5072139;28;20332;-77
2022/11/18 06:55:55;;;;;;;;;;;;;;;8.28;46.35;93952.06;5066321;28;20004;-77
2022/11/18 06:58:20;;;;;;;;;;;;;;;8.22;46.55;93958.19;5067067;28;19998;-76
2022/11/18 07:00:46;;;;;;;;;;;;;;;8.01;47.31;93973.25;5084822;28;20563;-77
2022/11/18 07:03:11;;;;;;;;;;;;;;;7.88;47.36;93960.81;5087934;28;19996;-77
2022/11/18 07:05:36;;;;;;;;;;;;;;;7.93;47.71;93961.03;5050422;28;19992;-77
2022/11/18 07:08:01;;;;;;;;;;;;;;;7.92;47.50;93975.28;5088749;28;19972;-77
2022/11/18 07:10:27;;;;;;;;;;;;;;;7.74;48.45;93973.19;5086687;28;20044;-77
2022/11/18 07:12:52;;;;;;;;;;;;;;;7.85;47.95;93977.94;5087424;28;19988;-77
2022/11/18 07:15:17;;;;;;;;;;;;;;;7.66;48.73;93982.16;5086053;28;20000;-77
2022/11/18 07:17:42;;;;;;;;;;;;;;;7.88;48.03;93982.00;5062913;28;20000;-77
2022/11/18 07:20:08;;;;;;;;;;;;;;;7.93;47.90;93987.53;5085947;28;20195;-76
2022/11/18 07:22:33;;;;;;;;;;;;;;;7.85;48.24;93985.88;5088382;28;20192;-78
2022/11/18 07:24:58;;;;;;;;;;;;;;;7.84;48.48;93983.44;5065919;28;19998;-78
2022/11/18 07:27:23;;;;;;;;;;;;;;;7.92;48.90;93984.06;5066124;28;20364;-77
2022/11/18 07:29:49;;;;;;;;;;;;;;;8.03;48.65;93995.91;5088227;28;19989;-77
2022/11/18 07:32:14;;;;;;;;;;;;;;;8.06;48.00;93997.31;5088468;28;19964;-77
2022/11/18 07:34:39;;;;;;;;;;;;;;;7.88;48.40;94005.84;5085870;28;20885;-78
2022/11/18 07:37:04;;;;;;;;;;;;;;;7.76;48.58;94009.06;5070732;28;19996;-76
2022/11/18 07:39:30;;;;;;;;;;;;;;;7.90;48.73;94009.97;5081879;28;20218;-76
2022/11/18 07:41:55;;;;;;;;;;;;;;;8.02;48.37;94009.34;5084965;28;19992;-77
2022/11/18 07:44:20;;;;;;;;;;;;;;;8.24;48.04;94017.97;5084501;28;19964;-78
2022/11/18 07:46:45;;;;;;;;;;;;;;;7.71;48.98;94019.44;5086136;28;19992;-77
2022/11/18 07:49:11;;;;;;;;;;;;;;;8.05;47.79;94017.72;5087098;28;19981;-77
2022/11/18 07:51:37;;;;;;;;;;;;;;;7.84;47.93;94020.53;5066561;28;19972;-77
2022/11/18 07:54:09;;;;;;;;;;;;;;;7.96;47.65;94018.13;5058350;28;20006;-77
2022/11/18 07:56:34;;;;;;;;;;;;;;;7.73;47.89;94016.59;5065222;28;20421;-65
2022/11/18 07:58:59;;;;;;;;;;;;;;;7.41;48.36;94025.03;5077737;28;20332;-66
2022/11/18 08:01:27;;;;;;;;;;;;;;;7.34;49.45;94032.94;5084274;28;20024;-67
2022/11/18 08:03:52;;;;;;;;;;;;;;;7.43;48.93;94030.97;5079896;28;19980;-67
2022/11/18 08:06:18;;;;;;;;;;;;;;;7.20;50.07;94032.06;5056559;28;19984;-66
2022/11/18 08:08:43;;;;;;;;;;;;;;;7.26;50.21;94046.34;5082804;28;20063;-67
2022/11/18 08:11:10;;;;;;;;;;;;;;;7.50;49.46;94041.56;5080529;28;19985;-66
2022/11/18 08:13:35;;;;;;;;;;;;;;;7.39;49.87;94046.41;5080948;28;20003;-66
2022/11/18 08:16:00;;;;;;;;;;;;;;;7.35;49.54;94058.41;5084615;28;19989;-66
2022/11/18 08:18:26;;;;;;;;;;;;;;;7.41;49.79;94054.97;5078857;28;20300;-67
2022/11/18 08:20:52;;;;;;;;;;;;;;;7.18;50.67;94057.94;5084334;28;19984;-66
2022/11/18 08:23:17;;;;;;;;;;;;;;;7.26;49.97;94057.78;5082434;28;19991;-66
2022/11/18 08:25:42;;;;;;;;;;;;;;;6.73;50.78;94063.50;5076520;28;20472;-67
2022/11/18 08:28:08;;;;;;;;;;;;;;;7.42;49.29;94055.81;5078334;28;20329;-67
2022/11/18 08:30:33;;;;;;;;;;;;;;;7.47;49.56;94063.97;5085321;28;19992;-66
2022/11/18 08:32:58;;;;;;;;;;;;;;;7.52;49.23;94066.03;5082821;28;20219;-65
2022/11/18 08:35:24;;;;;;;;;;;;;;;7.87;48.65;94065.16;5058246;28;20652;-67
2022/11/18 08:37:50;;;;;;;;;;;;;;;7.87;48.67;94063.34;5078712;28;20038;-67
2022/11/18 08:40:15;;;;;;;;;;;;;;;7.67;49.26;94063.25;5080700;28;19969;-66
2022/11/18 08:42:40;;;;;;;;;;;;;;;7.93;49.11;94069.69;5080255;28;20013;-66
2022/11/18 08:45:08;;;;;;;;;;;;;;;7.77;48.85;94076.97;5078989;28;20882;-67
2022/11/18 08:47:34;;;;;;;;;;;;;;;7.84;49.42;94062.91;5082984;28;19995;-67
2022/11/18 08:49:59;;;;;;;;;;;;;;;8.01;48.44;94068.69;5079648;28;19992;-66
2022/11/18 08:52:24;;;;;;;;;;;;;;;7.81;49.47;94068.59;5084411;28;19989;-66
2022/11/18 08:54:50;;;;;;;;;;;;;;;7.77;49.11;94076.16;5083943;28;20086;-66
2022/11/18 08:57:15;;;;;;;;;;;;;;;7.74;48.62;94076.50;5082076;28;20364;-66
2022/11/18 08:59:40;;;;;;;;;;;;;;;7.92;48.64;94086.59;5063066;28;20043;-67
2022/11/18 09:02:11;;;;;;;;;;;;;;;8.08;48.55;94087.25;5074910;28;19984;-67
2022/11/18 09:04:36;;;;;;;;;;;;;;;8.34;48.21;94093.63;5059957;28;19972;-66
2022/11/18 09:07:01;;;;;;;;;;;;;;;8.40;48.39;94093.63;5082165;28;20029;-67
2022/11/18 09:09:27;;;;;;;;;;;;;;;7.60;50.04;94104.78;5083636;28;20125;-67
2022/11/18 09:11:52;;;;;;;;;;;;;;;7.34;50.46;94101.78;5086491;28;20022;-67
2022/11/18 09:14:17;;;;;;;;;;;;;;;7.83;49.68;94101.84;5083493;28;20472;-67
2022/11/18 09:16:42;;;;;;;;;;;;;;;8.14;48.78;94099.72;5074560;28;20372;-67
2022/11/18 09:19:07;;;;;;;;;;;;;;;8.23;48.32;94098.50;5079537;28;19992;-67
2022/11/18 09:21:33;;;;;;;;;;;;;;;8.50;47.26;94095.91;5079546;28;20092;-67
2022/11/18 09:23:58;;;;;;;;;;;;;;;8.55;47.28;94100.59;5093952;28;20428;-67
2022/11/18 09:26:23;;;;;;;;;;;;;;;8.09;47.82;94104.81;5087077;28;20481;-67
2022/11/18 09:28:51;;;;;;;;;;;;;;;8.10;48.33;94104.59;5087467;28;19980;-67
2022/11/18 09:31:16;;;;;;;;;;;;;;;8.08;49.01;94101.31;5084570;28;20015;-67
2022/11/18 09:33:42;;;;;;;;;;;;;;;8.57;48.23;94101.22;5085475;28;20181;-67
2022/11/18 09:36:17;;;;;;;;;;;;;;;8.81;47.14;94110.41;5088360;28;20129;-66
2022/11/18 09:38:42;;;;;;;;;;;;;;;8.96;47.13;94109.44;5080896;28;19996;-67
2022/11/18 09:41:13;;;;;;;;;;;;;;;9.18;46.62;94114.53;5089467;28;20867;-66
2022/11/18 09:43:57;;;;;;;;;;;;;;;9.07;46.85;94114.13;5088315;28;19999;-67
2022/11/18 09:46:28;;;;;;;;;;;;;;;8.40;47.79;94120.16;5082424;28;19988;-66
2022/11/18 09:49:13;;;;;;;;;;;;;;;8.91;46.66;94123.25;5085553;28;20375;-66
2022/11/18 09:51:43;;;;;;;;;;;;;;;8.89;47.25;94132.47;5072091;28;20399;-65
2022/11/18 09:54:15;;;;;;;;;;;;;;;8.20;47.97;94130.72;5085016;28;19988;-65
2022/11/18 09:56:41;;;;;;;;;;;;;;;7.84;49.30;94139.75;5070041;28;19995;-66
2022/11/18 09:59:06;;;;;;;;;;;;;;;7.40;50.47;94138.09;5085510;28;19984;-65
2022/11/18 10:01:31;;;;;;;;;;;;;;;7.38;50.22;94139.31;5088263;28;20000;-66
2022/11/18 10:03:56;;;;;;;;;;;;;;;6.43;53.19;94138.50;5065575;28;19977;-66
2022/11/18 10:06:22;;;;;;;;;;;;;;;6.32;53.74;94147.75;5086233;28;20456;-66
2022/11/18 10:08:52;;;;;;;;;;;;;;;5.54;55.91;94156.19;5084837;28;20298;-65
2022/11/18 10:11:18;;;;;;;;;;;;;;;5.37;55.78;94151.06;5065417;28;20069;-66
2022/11/18 10:13:46;;;;;;;;;;;;;;;5.38;56.17;94155.34;5066811;28;20441;-66
2022/11/18 10:16:30;;;;;;;;;;;;;;;5.57;56.00;94151.34;5081714;28;20081;-67
2022/11/18 10:18:55;;;;;;;;;;;;;;;4.82;58.52;94151.22;5085187;28;20291;-66
2022/11/18 10:21:39;;;;;;;;;;;;;;;4.92;57.90;94156.25;5081609;28;19995;-66
2022/11/18 10:24:08;;;;;;;;;;;;;;;5.11;57.96;94157.59;5081870;28;19975;-67
2022/11/18 10:26:34;;;;;;;;;;;;;;;4.46;58.99;94171.09;5065731;28;20292;-65
2022/11/18 10:28:59;;;;;;;;;;;;;;;3.91;60.15;94163.19;5085912;28;19995;-66
2022/11/18 10:31:24;;;;;;;;;;;;;;;3.92;60.36;94173.53;5086392;28;20360;-67
2022/11/18 10:33:56;;;;;;;;;;;;;;;3.83;60.30;94179.84;5088311;28;19988;-66
2022/11/18 10:36:26;;;;;;;;;;;;;;;3.91;61.22;94169.25;5084592;28;19996;-67
2022/11/18 10:39:04;;;;;;;;;;;;;;;4.03;60.52;94172.34;5086518;28;20109;-66
2022/11/18 10:41:30;;;;;;;;;;;;;;;4.70;59.17;94171.94;5085158;28;20312;-67
2022/11/18 10:43:56;;;;;;;;;;;;;;;4.97;58.48;94170.53;5061519;28;20017;-66
2022/11/18 10:46:28;;;;;;;;;;;;;;;5.24;57.64;94164.06;5086109;28;20387;-66
2022/11/18 10:49:08;;;;;;;;;;;;;;;6.18;55.31;94167.94;5085961;28;20175;-67
2022/11/18 10:51:34;;;;;;;;;;;;;;;5.15;56.71;94176.50;5082504;28;20503;-66
2022/11/18 10:54:05;;;;;;;;;;;;;;;5.45;57.14;94177.34;5076694;28;19992;-67
2022/11/18 10:56:34;;;;;;;;;;;;;;;5.06;57.54;94181.03;5085192;28;19995;-66
2022/11/18 10:59:00;;;;;;;;;;;;;;;5.19;58.28;94183.91;5069900;28;20425;-66
2022/11/18 11:01:25;;;;;;;;;;;;;;;4.99;58.18;94180.09;5062137;28;20059;-67
2022/11/18 11:03:53;;;;;;;;;;;;;;;4.69;58.71;94180.81;5085878;28;19979;-66
2022/11/18 11:06:37;;;;;;;;;;;;;;;4.61;59.43;94179.06;5085922;28;19988;-67
2022/11/18 11:09:06;;;;;;;;;;;;;;;4.45;59.62;94187.91;5086539;28;19980;-67
2022/11/18 11:11:36;;;;;;;;;;;;;;;4.32;59.67;94189.28;5085307;28;20353;-67
2022/11/18 11:14:05;;;;;;;;;;;;;;;4.84;57.91;94181.69;5086449;28;20012;-67
2022/11/18 11:16:31;;;;;;;;;;;;;;;4.37;58.20;94188.78;5062024;28;19999;-67
2022/11/18 11:18:58;;;;;;;;;;;;;;;4.00;60.00;94185.00;5064882;28;20012;-67
2022/11/18 11:21:24;;;;;;;;;;;;;;;4.31;60.72;94189.47;5066578;28;19979;-66
2022/11/18 11:23:49;;;;;;;;;;;;;;;4.23;60.09;94186.88;5086163;28;19984;-66
2022/11/18 11:26:19;;;;;;;;;;;;;;;4.23;59.84;94194.78;5082889;28;20188;-67
2022/11/18 11:28:47;;;;;;;;;;;;;;;4.27;59.80;94191.63;5058665;28;20474;-67
2022/11/18 11:31:15;;;;;;;;;;;;;;;4.55;59.54;94200.84;5085002;28;20007;-66
2022/11/18 11:33:43;;;;;;;;;;;;;;;4.83;58.57;94197.69;5082233;28;20000;-67
2022/11/18 11:36:11;;;;;;;;;;;;;;;5.59;56.62;94202.16;5080697;28;20037;-67
2022/11/18 11:38:42;;;;;;;;;;;;;;;6.01;55.06;94204.31;5059503;28;20032;-66
2022/11/18 11:41:07;;;;;;;;;;;;;;;5.91;55.63;94204.59;5062708;28;20512;-68
2022/11/18 11:43:35;;;;;;;;;;;;;;;5.44;55.71;94202.13;5081178;28;20063;-66
2022/11/18 11:46:07;;;;;;;;;;;;;;;5.34;56.20;94206.88;5083626;28;20411;-67
2022/11/18 11:48:36;;;;;;;;;;;;;;;5.25;57.05;94203.47;5066264;28;20006;-66
2022/11/18 11:51:17;;;;;;;;;;;;;;;5.17;57.14;94208.84;5058033;28;20368;-68
2022/11/18 11:53:45;;;;;;;;;;;;;;;4.84;57.46;94212.53;5082829;28;20018;-66
2022/11/18 11:56:23;;;;;;;;;;;;;;;5.28;57.02;94207.56;5083864;28;19988;-66
2022/11/18 11:58:57;;;;;;;;;;;;;;;5.61;55.92;94209.88;5064772;28;20186;-67
2022/11/18 12:01:41;;;;;;;;;;;;;;;6.60;54.05;94204.41;5082175;28;19971;-67
2022/11/18 12:04:06;;;;;;;;;;;;;;;6.66;53.06;94205.47;5079510;28;19980;-68
2022/11/18 12:06:32;;;;;;;;;;;;;;;6.56;53.96;94205.78;5075488;28;19996;-67
2022/11/18 12:09:00;;;;;;;;;;;;;;;6.59;53.39;94210.69;5059439;28;20075;-67
2022/11/18 12:11:28;;;;;;;;;;;;;;;5.93;54.39;94217.63;5064761;28;19985;-63
2022/11/18 12:14:01;;;;;;;;;;;;;;;5.37;55.10;94214.41;5063971;28;20506;-65
2022/11/18 12:16:46;;;;;;;;;;;;;;;5.42;56.44;94208.59;5061566;28;20023;-66
2022/11/18 12:19:12;;;;;;;;;;;;;;;5.58;55.56;94215.53;5081383;28;20326;-65
2022/11/18 12:21:44;;;;;;;;;;;;;;;5.31;55.78;94215.13;5060826;28;21719;-65
2022/11/18 12:24:19;;;;;;;;;;;;;;;5.79;55.10;94224.53;5084718;28;19964;-65
2022/11/18 12:26:45;;;;;;;;;;;;;;;5.71;54.35;94220.16;5082923;28;20214;-64
2022/11/18 12:29:19;;;;;;;;;;;;;;;5.91;54.51;94224.91;5086947;28;20224;-66
2022/11/18 12:31:47;;;;;;;;;;;;;;;6.19;53.74;94227.69;5081661;28;19968;-66
2022/11/18 12:34:31;;;;;;;;;;;;;;;6.30;52.80;94221.13;5086536;28;20083;-66
2022/11/18 12:36:57;;;;;;;;;;;;;;;6.38;52.99;94221.03;5064753;28;19988;-66
2022/11/18 12:39:22;;;;;;;;;;;;;;;6.30;53.17;94220.31;5064011;28;19988;-64
2022/11/18 12:44:41;;;;;;;;;;;;;;;6.17;53.06;94234.19;5076870;28;20014;-66
2022/11/18 12:47:09;;;;;;;;;;;;;;;6.50;53.31;94228.50;5083738;28;19988;-64
2022/11/18 12:49:35;;;;;;;;;;;;;;;6.59;52.78;94223.91;5065015;28;20111;-65
2022/11/18 12:52:03;;;;;;;;;;;;;;;6.91;52.50;94229.75;5086527;28;20063;-65
2022/11/18 12:54:30;;;;;;;;;;;;;;;6.32;54.03;94237.63;5059218;28;20432;-66
2022/11/18 12:56:57;;;;;;;;;;;;;;;7.00;52.50;94231.22;5057451;28;20328;-66
2022/11/18 12:59:26;;;;;;;;;;;;;;;7.24;52.13;94229.19;5066760;28;20071;-65
2022/11/18 13:02:00;;;;;;;;;;;;;;;7.59;50.41;94235.56;5089030;28;20414;-66
2022/11/18 13:04:25;;;;;;;;;;;;;;;7.37;51.53;94232.97;5086913;28;19987;-65
2022/11/18 13:06:53;;;;;;;;;;;;;;;7.01;51.58;94240.81;5087117;28;20512;-65
2022/11/18 13:09:25;;;;;;;;;;;;;;;6.59;52.02;94245.88;5087833;28;20046;-65
2022/11/18 13:11:54;;;;;;;;;;;;;;;6.60;52.57;94244.88;5065422;28;19972;-66
2022/11/18 13:20:26;;;;;;;;;;;;;;;6.61;51.95;94238.59;5084526;28;20025;-66
2022/11/18 13:25:35;;;;;;;;;;;;;;;6.47;52.17;94242.06;5087503;28;20517;-66